Time;durP1;ratioP1;P1;durP2;ratioP2;P2;SDS_P1;SDS_P2;PMS_P1;PMS_P2;Temp;Humidity;BMP_temperature;BMP_pressure;BME280_temperature;BME280_humidity;BME280_pressure;Samples;Min_cycle;Max_cycle;Signal;HPM_P1;HPM_P2
2021/03/08 00:02:20;;;;;;;34.58;18.88;;;3.50;99.90;;;;;;5095208;28;20070;-75
2021/03/08 00:04:45;;;;;;;47.42;25.50;;;3.50;99.90;;;;;;5095181;28;20047;-74
2021/03/08 00:07:11;;;;;;;82.88;42.95;;;3.50;99.90;;;;;;5077059;28;20492;-75
2021/03/08 00:09:38;;;;;;;71.43;42.70;;;3.50;99.90;;;;;;5095102;28;20028;-75
2021/03/08 00:12:05;;;;;;;81.65;51.03;;;3.50;99.90;;;;;;5095015;28;20050;-75
2021/03/08 00:14:31;;;;;;;77.28;47.40;;;3.50;99.90;;;;;;5095379;28;20381;-75
2021/03/08 00:16:56;;;;;;;42.47;24.83;;;3.40;99.90;;;;;;5095272;28;20035;-75
2021/03/08 00:19:22;;;;;;;37.78;21.55;;;3.50;99.90;;;;;;5076870;28;20110;-74
2021/03/08 00:21:47;;;;;;;29.08;17.73;;;3.50;99.90;;;;;;5078575;28;20039;-75
2021/03/08 00:24:13;;;;;;;32.88;18.73;;;3.50;99.90;;;;;;5095092;28;20472;-75
2021/03/08 00:26:40;;;;;;;37.72;20.52;;;3.40;99.90;;;;;;5076659;28;20115;-75
2021/03/08 00:29:06;;;;;;;31.55;18.10;;;3.50;99.90;;;;;;5094780;28;20035;-75
2021/03/08 00:31:31;;;;;;;40.33;19.80;;;3.50;99.90;;;;;;5094873;28;20021;-75
2021/03/08 00:33:57;;;;;;;33.47;20.13;;;3.50;99.90;;;;;;5094508;28;20047;-75
2021/03/08 00:36:22;;;;;;;37.45;18.25;;;3.50;99.90;;;;;;5094682;28;20504;-75
2021/03/08 00:38:48;;;;;;;34.72;18.75;;;3.50;99.90;;;;;;5094583;28;20393;-76
2021/03/08 00:41:13;;;;;;;37.15;18.90;;;3.50;99.90;;;;;;5076478;28;20481;-75
2021/03/08 00:43:39;;;;;;;32.78;17.88;;;3.50;99.90;;;;;;5094459;28;20078;-75
2021/03/08 00:46:04;;;;;;;34.53;18.20;;;3.50;99.90;;;;;;5076289;28;20035;-75
2021/03/08 00:48:30;;;;;;;36.30;19.02;;;3.50;99.90;;;;;;5094799;28;20027;-75
2021/03/08 00:50:55;;;;;;;35.13;18.25;;;3.50;99.90;;;;;;5094369;28;20538;-75
2021/03/08 00:53:21;;;;;;;32.83;19.23;;;3.50;99.90;;;;;;5076144;28;20396;-75
2021/03/08 00:55:46;;;;;;;33.63;18.05;;;3.50;99.90;;;;;;5076172;28;20473;-75
2021/03/08 00:58:12;;;;;;;36.72;19.05;;;3.50;99.90;;;;;;5075990;28;20020;-75
2021/03/08 01:00:37;;;;;;;35.03;19.58;;;3.60;99.90;;;;;;5094430;28;20081;-75
2021/03/08 01:03:04;;;;;;;35.78;18.67;;;3.60;99.90;;;;;;5075895;28;20036;-75
2021/03/08 01:05:29;;;;;;;36.08;18.70;;;3.50;99.90;;;;;;5094067;28;20024;-75
2021/03/08 01:07:55;;;;;;;32.38;17.25;;;3.40;99.90;;;;;;5094059;28;20020;-75
2021/03/08 01:10:26;;;;;;;35.58;18.60;;;3.30;99.90;;;;;;5093455;28;20125;-75
2021/03/08 01:12:52;;;;;;;35.08;17.90;;;3.10;99.90;;;;;;5094329;28;20027;-75
2021/03/08 01:15:18;;;;;;;33.63;18.75;;;3.00;99.90;;;;;;5093889;28;20032;-75
2021/03/08 01:17:44;;;;;;;37.03;18.65;;;2.80;99.90;;;;;;5075637;28;20031;-75
2021/03/08 01:20:13;;;;;;;36.63;18.98;;;2.70;99.90;;;;;;5076016;28;20020;-74
2021/03/08 01:22:39;;;;;;;39.83;20.95;;;2.70;99.90;;;;;;5093564;28;20034;-75
2021/03/08 01:25:13;;;;;;;33.00;18.65;;;2.70;99.90;;;;;;5093853;28;20452;-75
2021/03/08 01:27:39;;;;;;;42.45;19.38;;;2.70;99.90;;;;;;5093701;28;20024;-75
2021/03/08 01:30:26;;;;;;;37.58;18.75;;;2.70;99.90;;;;;;5075462;28;20024;-75
2021/03/08 01:32:51;;;;;;;36.83;18.95;;;2.70;99.90;;;;;;5075294;28;20064;-74
2021/03/08 01:35:18;;;;;;;39.47;19.88;;;2.70;99.90;;;;;;5075407;28;20063;-75
2021/03/08 01:37:44;;;;;;;36.13;19.77;;;2.70;99.90;;;;;;5075334;28;20034;-75
2021/03/08 01:40:12;;;;;;;38.63;19.33;;;2.80;99.90;;;;;;5075294;28;20028;-75
2021/03/08 01:42:38;;;;;;;40.03;19.40;;;2.80;99.90;;;;;;5075736;28;20107;-75
2021/03/08 01:45:06;;;;;;;32.03;17.85;;;2.80;99.90;;;;;;5075126;28;20063;-75
2021/03/08 01:47:32;;;;;;;34.13;18.30;;;2.80;99.90;;;;;;5075126;28;20020;-75
2021/03/08 01:49:58;;;;;;;36.70;19.13;;;2.70;99.90;;;;;;5075253;28;20047;-75
2021/03/08 01:52:25;;;;;;;31.40;17.48;;;2.60;99.90;;;;;;5093272;28;20020;-75
2021/03/08 01:54:51;;;;;;;34.38;18.63;;;2.40;99.90;;;;;;5093295;28;20158;-74
2021/03/08 01:57:17;;;;;;;40.72;20.90;;;2.30;99.90;;;;;;5075153;28;20512;-75
2021/03/08 01:59:43;;;;;;;33.75;18.55;;;2.10;99.90;;;;;;5093486;28;20036;-75
2021/03/08 02:02:08;;;;;;;39.17;20.13;;;2.10;99.90;;;;;;5075039;28;20028;-75
2021/03/08 02:04:34;;;;;;;37.22;21.55;;;2.10;99.90;;;;;;5093041;28;20035;-75
2021/03/08 02:07:00;;;;;;;42.47;20.98;;;2.00;99.90;;;;;;5093397;28;20020;-75
2021/03/08 02:09:25;;;;;;;40.17;20.67;;;2.00;99.90;;;;;;5093103;28;20107;-74
2021/03/08 02:12:03;;;;;;;39.25;20.50;;;2.00;99.90;;;;;;5093072;28;20073;-75
2021/03/08 02:15:16;;;;;;;43.38;22.25;;;1.90;99.90;;;;;;5074963;28;20020;-75
2021/03/08 02:17:56;;;;;;;38.15;20.65;;;1.90;99.90;;;;;;5061671;28;20039;-75
2021/03/08 02:20:43;;;;;;;37.28;20.20;;;1.70;99.90;;;;;;5093101;28;20039;-75
2021/03/08 02:23:42;;;;;;;39.15;21.35;;;1.60;99.90;;;;;;5076770;28;20045;-75
2021/03/08 02:26:22;;;;;;;43.03;20.65;;;1.60;99.90;;;;;;5097109;28;20085;-75
2021/03/08 02:29:07;;;;;;;40.15;20.42;;;1.50;99.90;;;;;;5078891;28;20035;-75
2021/03/08 02:31:33;;;;;;;47.38;21.60;;;1.40;99.90;;;;;;5078931;28;20031;-75
2021/03/08 02:34:04;;;;;;;42.92;21.27;;;1.30;99.90;;;;;;5078705;28;20115;-75
2021/03/08 02:36:38;;;;;;;44.50;21.13;;;1.20;99.90;;;;;;5078819;28;20477;-75
2021/03/08 02:39:16;;;;;;;41.10;21.27;;;1.10;99.90;;;;;;5078683;28;20028;-75
2021/03/08 02:41:44;;;;;;;46.92;23.13;;;1.10;99.90;;;;;;5078794;28;20027;-75
2021/03/08 02:44:13;;;;;;;43.63;21.50;;;1.00;99.90;;;;;;5079381;28;20058;-76
2021/03/08 02:46:42;;;;;;;43.75;21.17;;;0.90;99.90;;;;;;5078557;28;20025;-75
2021/03/08 02:49:21;;;;;;;45.97;23.17;;;0.90;99.90;;;;;;5078770;28;20023;-75
2021/03/08 02:51:57;;;;;;;44.25;22.13;;;0.80;99.90;;;;;;5078751;28;20051;-75
2021/03/08 02:54:25;;;;;;;47.63;23.63;;;0.80;99.90;;;;;;5078425;28;20024;-75
2021/03/08 02:56:53;;;;;;;49.40;22.70;;;0.70;99.90;;;;;;5078450;28;20031;-74
2021/03/08 02:59:22;;;;;;;53.10;25.83;;;0.60;99.90;;;;;;5078287;28;20025;-75
2021/03/08 03:01:49;;;;;;;53.45;25.08;;;0.50;99.90;;;;;;5078251;28;20107;-75
2021/03/08 03:04:17;;;;;;;53.38;25.00;;;0.40;99.90;;;;;;5078467;28;20120;-75
2021/03/08 03:06:45;;;;;;;53.13;25.83;;;0.30;99.90;;;;;;5078074;28;20078;-74
2021/03/08 03:09:13;;;;;;;49.63;24.88;;;0.40;99.90;;;;;;5078144;28;20024;-75
2021/03/08 03:11:41;;;;;;;44.75;23.95;;;0.30;99.90;;;;;;5078066;28;20031;-74
2021/03/08 03:14:08;;;;;;;51.55;25.15;;;0.20;99.90;;;;;;5077996;28;20111;-74
2021/03/08 03:16:35;;;;;;;43.63;23.40;;;0.10;99.90;;;;;;5077965;28;20024;-74
2021/03/08 03:19:02;;;;;;;51.38;25.40;;;0.00;99.90;;;;;;5077999;28;20515;-74
2021/03/08 03:21:31;;;;;;;49.30;24.75;;;0.00;99.90;;;;;;5077855;28;20059;-74
2021/03/08 03:23:58;;;;;;;53.70;26.15;;;-0.10;99.90;;;;;;5077804;28;20152;-74
2021/03/08 03:26:26;;;;;;;49.28;25.52;;;-0.10;99.90;;;;;;5077799;28;20466;-75
2021/03/08 03:28:51;;;;;;;51.25;23.33;;;-0.10;99.90;;;;;;5077796;28;20023;-75
2021/03/08 03:31:19;;;;;;;56.08;26.08;;;-0.20;99.90;;;;;;5077769;28;20439;-74
2021/03/08 03:33:46;;;;;;;55.42;26.45;;;-0.20;99.90;;;;;;5100538;22;20413;-74
2021/03/08 03:36:12;;;;;;;51.30;25.60;;;-0.20;99.90;;;;;;5077642;28;20020;-74
2021/03/08 03:38:39;;;;;;;52.50;25.80;;;-0.30;99.90;;;;;;5077456;28;20032;-74
2021/03/08 03:41:05;;;;;;;51.70;25.63;;;-0.30;99.90;;;;;;5077546;28;20035;-75
2021/03/08 03:43:32;;;;;;;58.88;26.58;;;-0.30;99.90;;;;;;5077361;28;20028;-74
2021/03/08 03:46:02;;;;;;;57.80;27.58;;;-0.40;99.90;;;;;;5077378;28;20115;-74
2021/03/08 03:48:29;;;;;;;61.35;27.55;;;-0.40;99.90;;;;;;5077399;28;20016;-74
2021/03/08 03:50:55;;;;;;;60.05;27.88;;;-0.40;99.90;;;;;;5077351;28;20024;-74
2021/03/08 03:53:20;;;;;;;61.75;28.40;;;-0.40;99.90;;;;;;5077191;28;20031;-74
2021/03/08 03:55:46;;;;;;;59.70;26.77;;;-0.50;99.90;;;;;;5077498;28;20024;-74
2021/03/08 03:58:19;;;;;;;52.55;25.55;;;-0.50;99.90;;;;;;5077209;28;20036;-74
2021/03/08 04:01:00;;;;;;;51.95;26.48;;;-0.60;99.90;;;;;;5077197;28;20047;-74
2021/03/08 04:03:49;;;;;;;49.65;24.52;;;-0.60;99.90;;;;;;5077158;28;20028;-74
2021/03/08 04:06:17;;;;;;;56.85;25.75;;;-0.70;99.90;;;;;;5076884;28;20024;-74
2021/03/08 04:08:49;;;;;;;55.85;27.15;;;-0.70;99.90;;;;;;5077109;28;20136;-74
2021/03/08 04:11:16;;;;;;;61.45;27.98;;;-0.70;99.90;;;;;;5077156;28;20478;-74
2021/03/08 04:13:43;;;;;;;54.85;27.00;;;-0.80;99.90;;;;;;5076771;28;20089;-74
2021/03/08 04:16:10;;;;;;;50.17;24.35;;;-0.80;99.90;;;;;;5076954;28;20058;-74
2021/03/08 04:18:37;;;;;;;44.53;23.30;;;-0.90;99.90;;;;;;5076818;28;20020;-74
2021/03/08 04:21:04;;;;;;;49.97;24.75;;;-1.00;99.90;;;;;;5076793;28;20062;-74
2021/03/08 04:23:31;;;;;;;49.20;23.65;;;-1.10;99.90;;;;;;5076538;28;20024;-74
2021/03/08 04:25:58;;;;;;;54.08;26.30;;;-1.20;99.90;;;;;;5076556;28;20443;-74
2021/03/08 04:28:24;;;;;;;47.22;24.20;;;-1.20;99.90;;;;;;5076721;28;20053;-74
2021/03/08 04:30:50;;;;;;;47.95;23.90;;;-1.30;99.90;;;;;;5076551;28;20055;-74
2021/03/08 04:33:18;;;;;;;44.88;23.30;;;-1.30;99.90;;;;;;5076336;28;20063;-74
2021/03/08 04:35:46;;;;;;;48.38;23.77;;;-1.30;99.90;;;;;;5076543;28;20032;-74
2021/03/08 04:38:12;;;;;;;49.42;25.55;;;-1.40;99.90;;;;;;5076448;28;20495;-74
2021/03/08 04:40:40;;;;;;;43.83;20.75;;;-1.40;99.90;;;;;;5076355;28;20477;-74
2021/03/08 04:43:06;;;;;;;40.00;19.70;;;-1.40;99.90;;;;;;5076198;28;20370;-73
2021/03/08 04:45:33;;;;;;;42.55;21.58;;;-1.40;99.90;;;;;;5075387;28;20035;-74
2021/03/08 04:48:01;;;;;;;38.58;21.33;;;-1.50;99.90;;;;;;5076198;28;20027;-73
2021/03/08 04:50:28;;;;;;;40.72;21.42;;;-1.60;99.90;;;;;;5076176;28;20020;-74
2021/03/08 04:52:54;;;;;;;41.38;20.52;;;-1.60;99.90;;;;;;5076078;28;20098;-74
2021/03/08 04:55:23;;;;;;;42.67;19.15;;;-1.70;99.90;;;;;;5076077;28;20028;-74
2021/03/08 04:57:48;;;;;;;42.78;21.35;;;-1.70;99.90;;;;;;5076262;28;20489;-75
2021/03/08 05:00:15;;;;;;;46.20;22.42;;;-1.70;99.90;;;;;;5076015;28;20031;-74
2021/03/08 05:02:43;;;;;;;38.72;19.83;;;-1.70;99.90;;;;;;5075679;28;20028;-74
2021/03/08 05:05:10;;;;;;;40.30;20.15;;;-1.70;99.90;;;;;;5075802;28;20557;-74
2021/03/08 05:07:39;;;;;;;36.35;20.60;;;-1.70;99.90;;;;;;5075755;28;20024;-74
2021/03/08 05:10:09;;;;;;;37.25;20.05;;;-1.70;99.90;;;;;;5075687;28;20016;-74
2021/03/08 05:12:37;;;;;;;37.80;19.73;;;-1.70;99.90;;;;;;5075523;28;20047;-74
2021/03/08 05:15:05;;;;;;;36.30;18.73;;;-1.70;99.90;;;;;;5075947;28;20512;-74
2021/03/08 05:17:32;;;;;;;37.83;18.60;;;-1.70;99.90;;;;;;5059135;28;20036;-74
2021/03/08 05:20:00;;;;;;;40.30;19.42;;;-1.60;99.90;;;;;;5075644;28;20442;-74
2021/03/08 05:22:26;;;;;;;43.33;18.55;;;-1.60;99.90;;;;;;5075770;28;20020;-74
2021/03/08 05:24:52;;;;;;;40.42;21.67;;;-1.70;99.90;;;;;;5075562;28;20016;-74
2021/03/08 05:27:19;;;;;;;37.72;19.45;;;-1.70;99.90;;;;;;5075644;28;20023;-74
2021/03/08 05:29:46;;;;;;;37.25;18.58;;;-1.80;99.90;;;;;;5075563;28;20366;-75
2021/03/08 05:32:23;;;;;;;32.58;17.52;;;-1.80;99.90;;;;;;5075499;28;20031;-74
2021/03/08 05:34:51;;;;;;;37.63;18.17;;;-1.90;99.90;;;;;;5075336;28;20492;-74
2021/03/08 05:37:20;;;;;;;37.08;19.30;;;-1.90;99.90;;;;;;5093679;28;20032;-74
2021/03/08 05:39:46;;;;;;;35.83;17.55;;;-1.90;99.90;;;;;;5075433;28;20468;-74
2021/03/08 05:42:14;;;;;;;33.45;16.48;;;-1.90;99.90;;;;;;5075367;28;20024;-74
2021/03/08 05:45:00;;;;;;;27.08;15.55;;;-1.90;99.90;;;;;;5075260;28;20066;-74
2021/03/08 05:47:50;;;;;;;29.42;15.50;;;-1.90;99.90;;;;;;5075297;28;20396;-74
2021/03/08 05:50:56;;;;;;;25.55;15.10;;;-1.90;99.90;;;;;;5075332;28;20017;-74
2021/03/08 05:53:57;;;;;;;30.50;15.50;;;-2.00;99.90;;;;;;5075225;28;20027;-74
2021/03/08 05:56:32;;;;;;;27.08;15.15;;;-2.00;99.90;;;;;;5075052;28;20023;-74
2021/03/08 05:59:29;;;;;;;24.05;13.82;;;-2.00;99.90;;;;;;5075235;28;20114;-74
2021/03/08 06:02:04;;;;;;;29.02;16.08;;;-2.00;99.90;;;;;;5075382;28;20031;-74
2021/03/08 06:04:56;;;;;;;27.90;15.10;;;-2.00;99.90;;;;;;5075265;28;20028;-74
2021/03/08 06:07:33;;;;;;;21.95;11.20;;;-2.00;99.90;;;;;;5076040;28;20024;-73
2021/03/08 06:10:07;;;;;;;27.15;14.52;;;-2.00;99.90;;;;;;5093596;28;20074;-73
2021/03/08 06:12:35;;;;;;;29.90;15.38;;;-1.90;99.90;;;;;;5075957;28;20024;-73
2021/03/08 06:15:07;;;;;;;28.55;15.27;;;-1.80;99.90;;;;;;5075448;28;20039;-74
2021/03/08 06:17:33;;;;;;;26.48;14.68;;;-1.70;99.90;;;;;;5075702;28;20036;-74
2021/03/08 06:20:00;;;;;;;26.25;14.10;;;-1.50;99.90;;;;;;5075088;28;20482;-74
2021/03/08 06:22:26;;;;;;;26.95;15.13;;;-1.40;99.90;;;;;;5075133;28;20032;-74
2021/03/08 06:24:54;;;;;;;30.85;15.95;;;-1.40;99.90;;;;;;5075139;28;20054;-74
2021/03/08 06:27:21;;;;;;;26.42;15.68;;;-1.30;99.90;;;;;;5075148;28;20020;-74
2021/03/08 06:29:46;;;;;;;27.40;14.98;;;-1.20;99.90;;;;;;5074957;28;20024;-74
2021/03/08 06:32:12;;;;;;;26.98;14.43;;;-1.10;99.90;;;;;;5093363;28;20028;-74
2021/03/08 06:34:39;;;;;;;24.75;14.52;;;-1.10;99.90;;;;;;5074780;28;20020;-74
2021/03/08 06:37:10;;;;;;;24.25;14.35;;;-1.00;99.90;;;;;;5074885;28;20028;-74
2021/03/08 06:39:41;;;;;;;24.23;13.82;;;-0.90;99.90;;;;;;5074824;28;20059;-74
2021/03/08 06:42:07;;;;;;;23.50;14.52;;;-0.70;99.90;;;;;;5075134;28;20025;-74
2021/03/08 06:44:34;;;;;;;24.88;14.57;;;-0.60;99.90;;;;;;5075171;28;20028;-74
2021/03/08 06:47:00;;;;;;;21.92;13.95;;;-0.40;99.90;;;;;;5074646;28;20016;-74
2021/03/08 06:49:26;;;;;;;21.35;13.60;;;-0.20;99.90;;;;;;5074831;28;20022;-75
2021/03/08 06:52:12;;;;;;;28.63;14.93;;;0.00;99.90;;;;;;5074733;28;20034;-75
2021/03/08 06:54:39;;;;;;;21.70;14.25;;;0.20;99.90;;;;;;5074419;28;20024;-75
2021/03/08 06:57:28;;;;;;;21.02;12.80;;;0.40;99.90;;;;;;5075278;28;20374;-75
2021/03/08 06:59:59;;;;;;;26.38;13.65;;;0.60;99.90;;;;;;5074998;28;20020;-75
2021/03/08 07:02:39;;;;;;;25.38;14.57;;;0.90;99.90;;;;;;5075110;28;20024;-75
2021/03/08 07:05:07;;;;;;;26.23;13.75;;;1.10;99.90;;;;;;5074695;28;20032;-75
2021/03/08 07:08:01;;;;;;;25.90;13.73;;;1.30;99.90;;;;;;5074547;28;20024;-74
2021/03/08 07:10:37;;;;;;;21.60;12.07;;;1.50;99.90;;;;;;5078309;28;20031;-74
2021/03/08 07:13:05;;;;;;;22.75;12.70;;;1.60;99.90;;;;;;5078176;28;20020;-74
2021/03/08 07:15:31;;;;;;;20.65;12.20;;;1.80;99.90;;;;;;5078365;28;20111;-75
2021/03/08 07:17:56;;;;;;;21.10;12.93;;;1.90;99.90;;;;;;5078052;28;20124;-75
2021/03/08 07:20:26;;;;;;;23.85;13.38;;;2.00;99.90;;;;;;5078268;28;20035;-75
2021/03/08 07:22:53;;;;;;;21.88;12.93;;;2.20;99.90;;;;;;5077883;28;20028;-75
2021/03/08 07:25:26;;;;;;;20.42;13.70;;;2.40;99.90;;;;;;5077892;28;20028;-75
2021/03/08 07:27:57;;;;;;;22.63;12.70;;;2.50;99.90;;;;;;5078330;28;20117;-75
2021/03/08 07:30:27;;;;;;;24.83;13.70;;;2.50;99.90;;;;;;5078648;28;20024;-74
2021/03/08 07:32:58;;;;;;;20.17;13.00;;;2.70;99.90;;;;;;5078427;28;20044;-74
2021/03/08 07:35:44;;;;;;;22.27;13.82;;;2.70;99.90;;;;;;5078360;28;20081;-74
2021/03/08 07:38:34;;;;;;;21.83;13.27;;;2.80;99.90;;;;;;5077916;28;20024;-74
2021/03/08 07:41:20;;;;;;;23.10;14.02;;;2.90;99.90;;;;;;5077723;28;20024;-74
2021/03/08 07:43:51;;;;;;;20.88;12.95;;;3.20;99.90;;;;;;5077702;28;20024;-75
2021/03/08 07:46:27;;;;;;;19.73;11.80;;;3.30;99.90;;;;;;5077736;28;20025;-73
2021/03/08 07:48:53;;;;;;;17.65;11.40;;;3.40;99.90;;;;;;5077628;28;20055;-75
2021/03/08 07:51:19;;;;;;;20.95;11.63;;;3.60;99.90;;;;;;5077854;28;20026;-75
2021/03/08 07:53:45;;;;;;;19.58;11.23;;;3.70;99.90;;;;;;5077434;28;20400;-74
2021/03/08 07:56:10;;;;;;;21.00;12.27;;;3.70;99.90;;;;;;5077515;28;20608;-75
2021/03/08 07:58:38;;;;;;;22.13;11.50;;;3.80;99.90;;;;;;5077318;28;20077;-74
2021/03/08 08:01:06;;;;;;;16.52;11.05;;;4.00;99.90;;;;;;5077402;28;20024;-74
2021/03/08 08:03:33;;;;;;;16.67;11.77;;;4.40;99.90;;;;;;5077391;28;20051;-74
2021/03/08 08:06:07;;;;;;;16.58;11.65;;;4.70;99.90;;;;;;5077212;28;20047;-74
2021/03/08 08:08:34;;;;;;;21.77;12.70;;;4.70;99.90;;;;;;5077182;28;20077;-75
2021/03/08 08:11:02;;;;;;;16.35;11.85;;;5.00;99.90;;;;;;5077152;28;20043;-75
2021/03/08 08:13:34;;;;;;;19.20;11.45;;;5.20;99.90;;;;;;5077016;28;20077;-75
2021/03/08 08:16:05;;;;;;;20.83;12.07;;;5.40;99.90;;;;;;5077163;28;20028;-76
2021/03/08 08:18:35;;;;;;;18.42;11.70;;;5.50;99.90;;;;;;5077236;28;20052;-75
2021/03/08 08:21:01;;;;;;;17.13;12.10;;;5.70;99.90;;;;;;5076894;28;20027;-76
2021/03/08 08:23:35;;;;;;;16.52;11.23;;;6.10;99.90;;;;;;5094997;28;20032;-75
2021/03/08 08:26:01;;;;;;;20.45;11.90;;;6.40;99.90;;;;;;5094956;28;20036;-75
2021/03/08 08:28:27;;;;;;;17.83;11.88;;;6.60;99.90;;;;;;5076798;28;20385;-75
2021/03/08 08:30:58;;;;;;;15.65;11.55;;;6.80;99.90;;;;;;5076657;28;20032;-75
2021/03/08 08:33:32;;;;;;;14.30;11.02;;;7.00;99.90;;;;;;5076759;28;20125;-75
2021/03/08 08:36:13;;;;;;;16.58;11.38;;;7.30;99.90;;;;;;5076768;28;20028;-76
2021/03/08 08:38:41;;;;;;;13.63;10.48;;;7.60;99.90;;;;;;5094664;28;20024;-77
2021/03/08 08:41:17;;;;;;;13.23;9.68;;;8.40;98.80;;;;;;5076639;28;20046;-77
2021/03/08 08:43:43;;;;;;;13.32;9.98;;;9.20;93.30;;;;;;5093795;28;20055;-76
2021/03/08 08:46:39;;;;;;;14.15;10.25;;;9.90;86.50;;;;;;5076468;28;20485;-76
2021/03/08 08:49:11;;;;;;;13.80;9.93;;;11.40;81.40;;;;;;5060263;28;20028;-76
2021/03/08 08:51:49;;;;;;;12.27;8.48;;;13.20;70.20;;;;;;5076482;28;20052;-76
2021/03/08 08:54:27;;;;;;;13.80;8.75;;;15.00;55.80;;;;;;5093108;28;20027;-77
2021/03/08 08:57:11;;;;;;;9.98;8.15;;;17.00;50.90;;;;;;5093414;28;20439;-77
2021/03/08 08:59:38;;;;;;;9.68;8.30;;;20.50;40.90;;;;;;5076190;28;20028;-77
2021/03/08 09:02:28;;;;;;;9.07;7.80;;;23.40;34.10;;;;;;5076213;28;20127;-76
2021/03/08 09:04:53;;;;;;;7.40;6.68;;;26.70;28.80;;;;;;5067601;28;20036;-77
2021/03/08 09:07:27;;;;;;;7.68;6.15;;;28.70;26.50;;;;;;5075999;28;20020;-76
2021/03/08 09:10:00;;;;;;;6.72;5.97;;;30.70;24.00;;;;;;5076007;28;20031;-77
2021/03/08 09:12:30;;;;;;;8.18;7.38;;;31.90;21.70;;;;;;5075866;28;20020;-76
2021/03/08 09:15:02;;;;;;;7.00;5.93;;;32.40;20.70;;;;;;5092782;28;20024;-77
2021/03/08 09:17:47;;;;;;;8.63;7.82;;;32.60;21.30;;;;;;5054243;28;20052;-77
2021/03/08 09:20:13;;;;;;;6.85;6.22;;;33.10;20.30;;;;;;5055691;28;20032;-77
2021/03/08 09:22:44;;;;;;;8.25;7.28;;;33.70;20.00;;;;;;5055676;28;20444;-76
2021/03/08 09:25:09;;;;;;;8.45;7.53;;;33.00;19.20;;;;;;5055566;28;20024;-76
2021/03/08 09:27:41;;;;;;;7.07;6.38;;;32.70;19.70;;;;;;5055901;28;20066;-76
2021/03/08 09:30:12;;;;;;;6.82;5.95;;;32.60;20.30;;;;;;5055649;28;20016;-76
2021/03/08 09:32:48;;;;;;;7.53;6.82;;;33.20;19.60;;;;;;5055151;28;20056;-76
2021/03/08 09:35:14;;;;;;;6.95;5.53;;;34.30;18.40;;;;;;5077243;22;20498;-75
2021/03/08 09:37:44;;;;;;;7.20;6.50;;;35.20;18.40;;;;;;5052235;28;20021;-75
2021/03/08 09:40:11;;;;;;;7.93;7.13;;;35.30;18.10;;;;;;5052335;28;20070;-75
2021/03/08 09:42:38;;;;;;;6.93;6.22;;;34.70;17.70;;;;;;5052645;28;20490;-75
2021/03/08 09:45:17;;;;;;;9.23;6.63;;;34.60;18.30;;;;;;5052489;28;20052;-75
2021/03/08 09:47:42;;;;;;;6.57;5.97;;;34.90;17.50;;;;;;5052376;28;20021;-75
2021/03/08 09:50:09;;;;;;;7.25;6.25;;;33.50;18.20;;;;;;5053603;28;20096;-75
2021/03/08 09:52:39;;;;;;;6.88;6.28;;;33.50;18.10;;;;;;5052217;28;20489;-75
2021/03/08 09:55:08;;;;;;;6.35;5.35;;;33.40;18.30;;;;;;5053103;28;20033;-75
2021/03/08 09:57:36;;;;;;;8.35;7.03;;;34.90;18.10;;;;;;5052341;28;20021;-75
2021/03/08 10:00:11;;;;;;;6.10;5.50;;;35.60;17.20;;;;;;5052349;28;20128;-75
2021/03/08 10:02:37;;;;;;;7.70;6.40;;;35.20;17.60;;;;;;5052337;28;20079;-75
2021/03/08 10:05:08;;;;;;;5.78;4.85;;;35.70;17.50;;;;;;5052049;28;20029;-75
2021/03/08 10:07:34;;;;;;;6.65;6.05;;;36.30;17.10;;;;;;5052631;28;20359;-75
2021/03/08 10:10:11;;;;;;;7.57;6.88;;;35.20;17.10;;;;;;5052329;28;20027;-75
2021/03/08 10:12:37;;;;;;;7.88;6.78;;;33.60;17.70;;;;;;5051938;28;20021;-75
2021/03/08 10:15:05;;;;;;;7.88;7.13;;;32.70;18.70;;;;;;5051807;28;20029;-75
2021/03/08 10:17:31;;;;;;;7.72;7.03;;;31.90;18.40;;;;;;5051931;28;20501;-75
2021/03/08 10:19:58;;;;;;;5.63;4.95;;;31.40;18.30;;;;;;5053787;28;20025;-75
2021/03/08 10:22:38;;;;;;;5.30;4.80;;;31.70;19.60;;;;;;5052626;28;20025;-76
2021/03/08 10:25:28;;;;;;;4.80;4.30;;;33.60;18.00;;;;;;5051948;28;20024;-76
2021/03/08 10:28:04;;;;;;;5.22;4.72;;;36.00;17.10;;;;;;5051636;28;20120;-76
2021/03/08 10:30:34;;;;;;;5.43;4.68;;;37.50;16.00;;;;;;5051862;28;20031;-76
2021/03/08 10:33:08;;;;;;;7.28;6.10;;;37.20;15.90;;;;;;5052200;28;20491;-76
2021/03/08 10:35:59;;;;;;;5.93;5.28;;;36.20;16.20;;;;;;5052590;28;20029;-76
2021/03/08 10:38:33;;;;;;;7.18;6.45;;;36.00;16.50;;;;;;5051576;28;20461;-76
2021/03/08 10:41:01;;;;;;;6.68;6.07;;;34.50;16.80;;;;;;5051972;28;20022;-76
2021/03/08 10:43:28;;;;;;;6.60;5.90;;;33.60;17.20;;;;;;5052927;28;20017;-76
2021/03/08 10:45:55;;;;;;;6.50;5.90;;;33.90;17.10;;;;;;5057381;28;20036;-76
2021/03/08 10:48:21;;;;;;;12.40;9.52;;;33.90;17.10;;;;;;5055819;28;20074;-76
2021/03/08 10:50:52;;;;;;;11.05;9.25;;;33.30;17.00;;;;;;5056138;28;20025;-76
2021/03/08 10:53:22;;;;;;;6.63;5.90;;;31.60;18.00;;;;;;5055719;28;20036;-76
2021/03/08 10:55:49;;;;;;;7.65;5.80;;;31.10;18.90;;;;;;5057169;28;20021;-76
2021/03/08 10:58:15;;;;;;;7.18;6.47;;;31.30;18.50;;;;;;5055958;28;20025;-76
2021/03/08 11:00:43;;;;;;;7.75;6.95;;;31.10;18.60;;;;;;5056377;28;20393;-76
2021/03/08 11:03:34;;;;;;;5.43;4.93;;;30.90;18.60;;;;;;5055207;28;20483;-76
2021/03/08 11:06:11;;;;;;;6.78;6.13;;;31.80;18.10;;;;;;5055859;28;20037;-76
2021/03/08 11:08:39;;;;;;;5.22;4.72;;;31.80;18.40;;;;;;5054617;28;20464;-76
2021/03/08 11:11:22;;;;;;;6.65;5.65;;;32.50;18.30;;;;;;5054893;28;20052;-76
2021/03/08 11:13:50;;;;;;;7.25;5.47;;;33.60;17.60;;;;;;5054925;28;20481;-76
2021/03/08 11:16:16;;;;;;;6.13;5.53;;;32.40;17.30;;;;;;5054955;28;20535;-76
2021/03/08 11:18:45;;;;;;;5.30;4.30;;;32.60;17.20;;;;;;5055313;28;20029;-76
2021/03/08 11:21:25;;;;;;;7.57;5.15;;;33.60;17.70;;;;;;5054811;28;20021;-76
2021/03/08 11:23:53;;;;;;;4.93;4.22;;;36.00;16.50;;;;;;5055073;28;20074;-76
2021/03/08 11:26:20;;;;;;;6.32;5.72;;;36.90;16.50;;;;;;5054617;28;20033;-75
2021/03/08 11:28:46;;;;;;;8.02;5.93;;;36.10;16.10;;;;;;5054618;28;20028;-76
2021/03/08 11:31:19;;;;;;;6.47;5.88;;;33.20;17.30;;;;;;5055781;28;20535;-76
2021/03/08 11:33:50;;;;;;;6.85;4.20;;;31.70;18.30;;;;;;5054273;28;20040;-76
2021/03/08 11:36:31;;;;;;;6.88;4.45;;;32.60;18.70;;;;;;5054359;28;20078;-76
2021/03/08 11:39:05;;;;;;;6.05;5.30;;;34.70;17.00;;;;;;5054318;28;20025;-76
2021/03/08 11:41:32;;;;;;;5.70;4.45;;;35.40;16.20;;;;;;5054496;28;20482;-76
2021/03/08 11:43:59;;;;;;;4.95;4.43;;;35.90;16.80;;;;;;5054263;28;20075;-76
2021/03/08 11:46:24;;;;;;;4.47;4.05;;;36.00;16.40;;;;;;5054341;28;20482;-76
2021/03/08 11:48:58;;;;;;;4.72;4.10;;;35.00;16.20;;;;;;5054188;28;20032;-76
2021/03/08 11:51:24;;;;;;;4.25;3.72;;;34.70;16.60;;;;;;5054375;28;20036;-76
2021/03/08 11:53:49;;;;;;;5.38;4.25;;;35.20;16.60;;;;;;5057553;28;20021;-76
2021/03/08 11:56:15;;;;;;;4.40;3.55;;;35.20;16.40;;;;;;5060806;28;20024;-76
2021/03/08 11:58:40;;;;;;;5.88;4.53;;;34.30;16.90;;;;;;5059704;28;20477;-76
2021/03/08 12:01:06;;;;;;;4.65;3.65;;;35.10;16.40;;;;;;5058869;28;20112;-76
2021/03/08 12:03:32;;;;;;;3.15;2.85;;;35.30;17.00;;;;;;5057540;28;20021;-76
2021/03/08 12:05:57;;;;;;;4.20;3.10;;;36.20;16.60;;;;;;5056714;28;20029;-76
2021/03/08 12:08:23;;;;;;;4.13;3.67;;;37.40;15.70;;;;;;5054429;28;20535;-76
2021/03/08 12:10:48;;;;;;;4.68;3.30;;;37.30;15.50;;;;;;5054501;28;20032;-76
2021/03/08 12:13:14;;;;;;;4.88;4.07;;;37.20;15.80;;;;;;5053947;28;20106;-77
2021/03/08 12:15:40;;;;;;;3.85;2.95;;;37.90;15.80;;;;;;5053739;28;20498;-76
2021/03/08 12:18:05;;;;;;;3.63;3.25;;;39.30;15.00;;;;;;5053913;28;20056;-76
2021/03/08 12:20:32;;;;;;;3.90;3.15;;;40.10;14.30;;;;;;5053939;28;20075;-76
2021/03/08 12:22:57;;;;;;;4.05;3.72;;;38.70;14.90;;;;;;5054783;28;20032;-76
2021/03/08 12:25:23;;;;;;;4.03;3.63;;;39.20;15.10;;;;;;5053675;28;20120;-76
2021/03/08 12:27:48;;;;;;;4.78;3.78;;;38.80;15.00;;;;;;5053658;28;20083;-76
2021/03/08 12:30:14;;;;;;;4.60;4.20;;;37.20;15.90;;;;;;5052995;28;20047;-76
2021/03/08 12:32:40;;;;;;;3.92;3.13;;;36.50;16.20;;;;;;5053236;28;20059;-76
2021/03/08 12:35:06;;;;;;;3.60;3.25;;;36.90;16.00;;;;;;5053156;28;20033;-77
2021/03/08 12:37:32;;;;;;;4.45;2.67;;;37.70;15.90;;;;;;5054004;28;20025;-77
2021/03/08 12:39:58;;;;;;;3.78;3.33;;;38.50;15.10;;;;;;5052979;28;20047;-77
2021/03/08 12:42:24;;;;;;;4.28;3.70;;;39.60;14.80;;;;;;5053252;28;20024;-77
2021/03/08 12:44:49;;;;;;;3.10;2.80;;;39.70;14.40;;;;;;5053269;28;20017;-77
2021/03/08 12:47:15;;;;;;;4.22;3.00;;;40.20;14.30;;;;;;5053235;28;20048;-77
2021/03/08 12:49:40;;;;;;;3.67;3.38;;;39.80;14.10;;;;;;5053219;28;20029;-77
2021/03/08 12:52:06;;;;;;;3.55;3.25;;;39.30;14.20;;;;;;5053475;28;20422;-76
2021/03/08 12:54:32;;;;;;;4.72;3.00;;;38.90;14.40;;;;;;5053244;28;20506;-76